sensor_id;sensor_type;location;lat;lon;timestamp;P1;durP1;ratioP1;P2;durP2;ratioP2
20454;SDS011;10386;54.314;10.022;2023-12-04T00:01:17;46.30;;;17.57;;
20454;SDS011;10386;54.314;10.022;2023-12-04T00:03:44;47.43;;;16.87;;
20454;SDS011;10386;54.314;10.022;2023-12-04T00:06:12;44.97;;;17.00;;
20454;SDS011;10386;54.314;10.022;2023-12-04T00:08:39;44.67;;;18.30;;
20454;SDS011;10386;54.314;10.022;2023-12-04T00:11:06;46.10;;;17.53;;
20454;SDS011;10386;54.314;10.022;2023-12-04T00:13:33;47.40;;;19.40;;
20454;SDS011;10386;54.314;10.022;2023-12-04T00:16:01;40.00;;;16.77;;
20454;SDS011;10386;54.314;10.022;2023-12-04T00:18:28;48.60;;;18.77;;
20454;SDS011;10386;54.314;10.022;2023-12-04T00:20:56;45.50;;;18.50;;
20454;SDS011;10386;54.314;10.022;2023-12-04T00:23:22;44.43;;;17.67;;
20454;SDS011;10386;54.314;10.022;2023-12-04T00:25:49;48.67;;;17.97;;
20454;SDS011;10386;54.314;10.022;2023-12-04T00:28:16;44.70;;;17.77;;
20454;SDS011;10386;54.314;10.022;2023-12-04T00:30:44;47.77;;;18.20;;
20454;SDS011;10386;54.314;10.022;2023-12-04T00:33:11;47.73;;;18.07;;
20454;SDS011;10386;54.314;10.022;2023-12-04T00:35:37;46.43;;;17.67;;
20454;SDS011;10386;54.314;10.022;2023-12-04T00:38:04;46.80;;;20.33;;
20454;SDS011;10386;54.314;10.022;2023-12-04T00:40:31;43.73;;;17.73;;
20454;SDS011;10386;54.314;10.022;2023-12-04T00:42:58;46.87;;;18.17;;
20454;SDS011;10386;54.314;10.022;2023-12-04T00:45:25;45.13;;;17.27;;
20454;SDS011;10386;54.314;10.022;2023-12-04T00:47:53;45.10;;;17.90;;
20454;SDS011;10386;54.314;10.022;2023-12-04T00:50:19;41.47;;;16.17;;
20454;SDS011;10386;54.314;10.022;2023-12-04T00:52:46;44.23;;;17.43;;
20454;SDS011;10386;54.314;10.022;2023-12-04T00:55:13;43.57;;;18.10;;
20454;SDS011;10386;54.314;10.022;2023-12-04T00:57:40;48.20;;;17.60;;
20454;SDS011;10386;54.314;10.022;2023-12-04T01:00:07;43.00;;;17.07;;
20454;SDS011;10386;54.314;10.022;2023-12-04T01:02:34;49.40;;;18.33;;
20454;SDS011;10386;54.314;10.022;2023-12-04T01:05:01;41.00;;;17.20;;
20454;SDS011;10386;54.314;10.022;2023-12-04T01:07:28;45.77;;;18.70;;
20454;SDS011;10386;54.314;10.022;2023-12-04T01:09:55;43.23;;;17.53;;
20454;SDS011;10386;54.314;10.022;2023-12-04T01:12:22;41.23;;;16.67;;
20454;SDS011;10386;54.314;10.022;2023-12-04T01:14:49;45.80;;;17.43;;
20454;SDS011;10386;54.314;10.022;2023-12-04T01:17:16;46.50;;;16.67;;
20454;SDS011;10386;54.314;10.022;2023-12-04T01:19:43;47.37;;;16.60;;
20454;SDS011;10386;54.314;10.022;2023-12-04T01:22:10;41.63;;;16.80;;
20454;SDS011;10386;54.314;10.022;2023-12-04T01:24:36;47.73;;;17.47;;
20454;SDS011;10386;54.314;10.022;2023-12-04T01:27:03;42.77;;;17.30;;
20454;SDS011;10386;54.314;10.022;2023-12-04T01:29:30;41.40;;;16.37;;
20454;SDS011;10386;54.314;10.022;2023-12-04T01:31:59;43.07;;;16.40;;
20454;SDS011;10386;54.314;10.022;2023-12-04T01:34:25;39.93;;;15.73;;
20454;SDS011;10386;54.314;10.022;2023-12-04T01:36:52;46.03;;;17.10;;
20454;SDS011;10386;54.314;10.022;2023-12-04T01:39:19;41.97;;;15.07;;
20454;SDS011;10386;54.314;10.022;2023-12-04T01:41:46;42.27;;;16.13;;
20454;SDS011;10386;54.314;10.022;2023-12-04T01:44:13;42.27;;;15.20;;
20454;SDS011;10386;54.314;10.022;2023-12-04T01:46:41;41.37;;;16.10;;
20454;SDS011;10386;54.314;10.022;2023-12-04T01:49:08;44.03;;;16.37;;
20454;SDS011;10386;54.314;10.022;2023-12-04T01:51:36;42.60;;;15.20;;
20454;SDS011;10386;54.314;10.022;2023-12-04T01:54:03;47.00;;;16.30;;
20454;SDS011;10386;54.314;10.022;2023-12-04T01:56:33;44.80;;;15.83;;
20454;SDS011;10386;54.314;10.022;2023-12-04T01:59:00;46.00;;;16.03;;
20454;SDS011;10386;54.314;10.022;2023-12-04T02:01:28;41.63;;;15.27;;
20454;SDS011;10386;54.314;10.022;2023-12-04T02:03:56;45.13;;;15.67;;
20454;SDS011;10386;54.314;10.022;2023-12-04T02:06:23;50.50;;;16.87;;
20454;SDS011;10386;54.314;10.022;2023-12-04T02:08:51;45.90;;;16.70;;
20454;SDS011;10386;54.314;10.022;2023-12-04T02:11:18;49.27;;;17.03;;
20454;SDS011;10386;54.314;10.022;2023-12-04T02:13:45;43.60;;;15.43;;
20454;SDS011;10386;54.314;10.022;2023-12-04T02:16:12;40.03;;;14.73;;
20454;SDS011;10386;54.314;10.022;2023-12-04T02:18:41;45.90;;;15.83;;
20454;SDS011;10386;54.314;10.022;2023-12-04T02:21:09;46.83;;;16.87;;
20454;SDS011;10386;54.314;10.022;2023-12-04T02:23:36;42.27;;;16.60;;
20454;SDS011;10386;54.314;10.022;2023-12-04T02:26:05;43.87;;;15.70;;
20454;SDS011;10386;54.314;10.022;2023-12-04T02:28:40;46.53;;;16.00;;
20454;SDS011;10386;54.314;10.022;2023-12-04T02:31:12;42.10;;;16.00;;
20454;SDS011;10386;54.314;10.022;2023-12-04T02:33:39;42.30;;;15.47;;
20454;SDS011;10386;54.314;10.022;2023-12-04T02:36:07;42.53;;;14.07;;
20454;SDS011;10386;54.314;10.022;2023-12-04T02:38:36;41.93;;;14.93;;
20454;SDS011;10386;54.314;10.022;2023-12-04T02:41:03;41.73;;;15.60;;
20454;SDS011;10386;54.314;10.022;2023-12-04T02:43:31;41.77;;;15.67;;
20454;SDS011;10386;54.314;10.022;2023-12-04T02:46:00;41.67;;;15.27;;
20454;SDS011;10386;54.314;10.022;2023-12-04T02:48:27;36.57;;;13.90;;
20454;SDS011;10386;54.314;10.022;2023-12-04T02:50:54;46.27;;;16.47;;
20454;SDS011;10386;54.314;10.022;2023-12-04T02:53:20;39.77;;;14.60;;
20454;SDS011;10386;54.314;10.022;2023-12-04T02:55:47;41.07;;;15.57;;
20454;SDS011;10386;54.314;10.022;2023-12-04T02:58:14;45.20;;;16.33;;
20454;SDS011;10386;54.314;10.022;2023-12-04T03:00:41;39.43;;;15.13;;
20454;SDS011;10386;54.314;10.022;2023-12-04T03:03:08;40.40;;;14.97;;
20454;SDS011;10386;54.314;10.022;2023-12-04T03:05:37;39.23;;;14.60;;
20454;SDS011;10386;54.314;10.022;2023-12-04T03:08:04;41.53;;;15.30;;
20454;SDS011;10386;54.314;10.022;2023-12-04T03:10:31;40.87;;;14.97;;
20454;SDS011;10386;54.314;10.022;2023-12-04T03:12:57;44.00;;;15.13;;
20454;SDS011;10386;54.314;10.022;2023-12-04T03:15:24;39.73;;;15.20;;
20454;SDS011;10386;54.314;10.022;2023-12-04T03:17:51;43.17;;;16.57;;
20454;SDS011;10386;54.314;10.022;2023-12-04T03:20:18;36.43;;;14.93;;
20454;SDS011;10386;54.314;10.022;2023-12-04T03:22:45;40.57;;;15.47;;
20454;SDS011;10386;54.314;10.022;2023-12-04T03:25:12;46.93;;;15.03;;
20454;SDS011;10386;54.314;10.022;2023-12-04T03:27:39;40.47;;;14.30;;
20454;SDS011;10386;54.314;10.022;2023-12-04T03:30:05;46.73;;;14.27;;
20454;SDS011;10386;54.314;10.022;2023-12-04T03:32:33;35.13;;;13.00;;
20454;SDS011;10386;54.314;10.022;2023-12-04T03:35:00;36.30;;;13.17;;
20454;SDS011;10386;54.314;10.022;2023-12-04T03:37:27;42.27;;;13.80;;
20454;SDS011;10386;54.314;10.022;2023-12-04T03:39:54;43.10;;;14.13;;
20454;SDS011;10386;54.314;10.022;2023-12-04T03:42:21;38.70;;;14.17;;
20454;SDS011;10386;54.314;10.022;2023-12-04T03:44:48;37.20;;;12.83;;
20454;SDS011;10386;54.314;10.022;2023-12-04T03:47:15;40.67;;;13.47;;
20454;SDS011;10386;54.314;10.022;2023-12-04T03:49:41;40.87;;;13.57;;
20454;SDS011;10386;54.314;10.022;2023-12-04T03:52:08;41.53;;;14.10;;
20454;SDS011;10386;54.314;10.022;2023-12-04T03:54:35;42.77;;;14.37;;
20454;SDS011;10386;54.314;10.022;2023-12-04T03:57:02;40.47;;;13.93;;
20454;SDS011;10386;54.314;10.022;2023-12-04T03:59:29;38.97;;;12.77;;
20454;SDS011;10386;54.314;10.022;2023-12-04T04:01:55;39.13;;;13.50;;
20454;SDS011;10386;54.314;10.022;2023-12-04T04:04:22;34.47;;;12.70;;
20454;SDS011;10386;54.314;10.022;2023-12-04T04:06:49;42.63;;;13.27;;
20454;SDS011;10386;54.314;10.022;2023-12-04T04:09:16;34.83;;;13.63;;
20454;SDS011;10386;54.314;10.022;2023-12-04T04:11:43;38.23;;;13.40;;
20454;SDS011;10386;54.314;10.022;2023-12-04T04:14:10;40.53;;;14.50;;
20454;SDS011;10386;54.314;10.022;2023-12-04T04:16:36;36.50;;;13.13;;
20454;SDS011;10386;54.314;10.022;2023-12-04T04:19:05;41.87;;;14.10;;
20454;SDS011;10386;54.314;10.022;2023-12-04T04:21:33;34.63;;;12.60;;
20454;SDS011;10386;54.314;10.022;2023-12-04T04:24:01;46.53;;;13.70;;
20454;SDS011;10386;54.314;10.022;2023-12-04T04:26:29;39.30;;;13.33;;
20454;SDS011;10386;54.314;10.022;2023-12-04T04:28:59;38.37;;;13.23;;
20454;SDS011;10386;54.314;10.022;2023-12-04T04:31:26;39.30;;;13.40;;
20454;SDS011;10386;54.314;10.022;2023-12-04T04:33:53;37.33;;;12.83;;
20454;SDS011;10386;54.314;10.022;2023-12-04T04:36:20;32.20;;;12.20;;
20454;SDS011;10386;54.314;10.022;2023-12-04T04:38:46;38.70;;;12.30;;
20454;SDS011;10386;54.314;10.022;2023-12-04T04:41:14;37.50;;;13.40;;
20454;SDS011;10386;54.314;10.022;2023-12-04T04:43:41;40.07;;;14.27;;
20454;SDS011;10386;54.314;10.022;2023-12-04T04:46:08;36.70;;;13.37;;
20454;SDS011;10386;54.314;10.022;2023-12-04T04:48:35;35.40;;;12.93;;
20454;SDS011;10386;54.314;10.022;2023-12-04T04:51:02;36.50;;;13.97;;
20454;SDS011;10386;54.314;10.022;2023-12-04T04:53:29;34.67;;;12.63;;
20454;SDS011;10386;54.314;10.022;2023-12-04T04:55:58;33.00;;;11.50;;
20454;SDS011;10386;54.314;10.022;2023-12-04T04:58:28;34.87;;;12.37;;
20454;SDS011;10386;54.314;10.022;2023-12-04T05:00:56;35.50;;;12.27;;
20454;SDS011;10386;54.314;10.022;2023-12-04T05:03:23;43.53;;;17.60;;
20454;SDS011;10386;54.314;10.022;2023-12-04T05:05:50;43.40;;;14.97;;
20454;SDS011;10386;54.314;10.022;2023-12-04T05:08:17;50.03;;;15.10;;
20454;SDS011;10386;54.314;10.022;2023-12-04T05:10:44;43.50;;;14.80;;
20454;SDS011;10386;54.314;10.022;2023-12-04T05:13:11;36.93;;;13.33;;
20454;SDS011;10386;54.314;10.022;2023-12-04T05:15:39;39.27;;;13.23;;
20454;SDS011;10386;54.314;10.022;2023-12-04T05:18:06;34.27;;;12.50;;
20454;SDS011;10386;54.314;10.022;2023-12-04T05:20:33;37.20;;;14.63;;
20454;SDS011;10386;54.314;10.022;2023-12-04T05:23:02;41.60;;;14.20;;
20454;SDS011;10386;54.314;10.022;2023-12-04T05:25:29;37.60;;;13.40;;
20454;SDS011;10386;54.314;10.022;2023-12-04T05:28:06;32.80;;;11.90;;
20454;SDS011;10386;54.314;10.022;2023-12-04T05:30:33;35.50;;;13.43;;
20454;SDS011;10386;54.314;10.022;2023-12-04T05:32:59;34.67;;;13.10;;
20454;SDS011;10386;54.314;10.022;2023-12-04T05:35:26;36.20;;;12.83;;
20454;SDS011;10386;54.314;10.022;2023-12-04T05:37:53;35.07;;;13.03;;
20454;SDS011;10386;54.314;10.022;2023-12-04T05:40:21;33.43;;;12.70;;
20454;SDS011;10386;54.314;10.022;2023-12-04T05:42:49;35.37;;;12.80;;
20454;SDS011;10386;54.314;10.022;2023-12-04T05:45:25;36.93;;;12.27;;
20454;SDS011;10386;54.314;10.022;2023-12-04T05:47:54;36.53;;;12.10;;
20454;SDS011;10386;54.314;10.022;2023-12-04T05:50:21;35.97;;;12.57;;
20454;SDS011;10386;54.314;10.022;2023-12-04T05:52:48;30.17;;;12.23;;
20454;SDS011;10386;54.314;10.022;2023-12-04T05:55:21;39.43;;;13.37;;
20454;SDS011;10386;54.314;10.022;2023-12-04T05:57:59;41.70;;;13.83;;
20454;SDS011;10386;54.314;10.022;2023-12-04T06:00:32;31.77;;;12.37;;
20454;SDS011;10386;54.314;10.022;2023-12-04T06:03:15;35.20;;;12.40;;
20454;SDS011;10386;54.314;10.022;2023-12-04T06:05:42;32.47;;;13.03;;
20454;SDS011;10386;54.314;10.022;2023-12-04T06:08:10;32.17;;;11.90;;
20454;SDS011;10386;54.314;10.022;2023-12-04T06:10:50;34.37;;;11.97;;
20454;SDS011;10386;54.314;10.022;2023-12-04T06:13:24;34.73;;;11.90;;
20454;SDS011;10386;54.314;10.022;2023-12-04T06:39:12;26.27;;;10.50;;
20454;SDS011;10386;54.314;10.022;2023-12-04T06:41:40;27.47;;;11.27;;
20454;SDS011;10386;54.314;10.022;2023-12-04T06:44:07;27.33;;;11.23;;
20454;SDS011;10386;54.314;10.022;2023-12-04T06:46:38;30.23;;;11.53;;
20454;SDS011;10386;54.314;10.022;2023-12-04T06:49:05;27.67;;;11.60;;
20454;SDS011;10386;54.314;10.022;2023-12-04T06:51:33;31.40;;;12.57;;
20454;SDS011;10386;54.314;10.022;2023-12-04T06:54:00;35.90;;;13.67;;
20454;SDS011;10386;54.314;10.022;2023-12-04T06:56:29;34.47;;;12.63;;
20454;SDS011;10386;54.314;10.022;2023-12-04T06:58:56;31.33;;;11.93;;
20454;SDS011;10386;54.314;10.022;2023-12-04T07:01:23;34.17;;;11.83;;
20454;SDS011;10386;54.314;10.022;2023-12-04T07:03:50;38.20;;;14.00;;
20454;SDS011;10386;54.314;10.022;2023-12-04T07:06:17;31.97;;;12.13;;
20454;SDS011;10386;54.314;10.022;2023-12-04T07:08:44;34.23;;;12.60;;
20454;SDS011;10386;54.314;10.022;2023-12-04T07:11:11;41.53;;;12.57;;
20454;SDS011;10386;54.314;10.022;2023-12-04T07:13:41;35.07;;;12.43;;
20454;SDS011;10386;54.314;10.022;2023-12-04T07:16:08;31.03;;;12.03;;
20454;SDS011;10386;54.314;10.022;2023-12-04T07:18:35;33.03;;;12.50;;
20454;SDS011;10386;54.314;10.022;2023-12-04T07:21:03;31.03;;;12.47;;
20454;SDS011;10386;54.314;10.022;2023-12-04T07:23:30;27.47;;;12.40;;
20454;SDS011;10386;54.314;10.022;2023-12-04T07:25:57;32.57;;;13.93;;
20454;SDS011;10386;54.314;10.022;2023-12-04T07:28:23;37.23;;;12.67;;
20454;SDS011;10386;54.314;10.022;2023-12-04T07:30:50;35.33;;;12.17;;
20454;SDS011;10386;54.314;10.022;2023-12-04T07:33:17;44.37;;;15.93;;
20454;SDS011;10386;54.314;10.022;2023-12-04T07:35:44;61.83;;;24.63;;
20454;SDS011;10386;54.314;10.022;2023-12-04T07:38:11;43.30;;;15.97;;
20454;SDS011;10386;54.314;10.022;2023-12-04T07:40:38;40.57;;;15.23;;
20454;SDS011;10386;54.314;10.022;2023-12-04T07:43:05;37.73;;;14.43;;
20454;SDS011;10386;54.314;10.022;2023-12-04T07:45:32;32.40;;;13.53;;
20454;SDS011;10386;54.314;10.022;2023-12-04T07:48:01;38.60;;;12.80;;
20454;SDS011;10386;54.314;10.022;2023-12-04T07:50:28;31.57;;;12.70;;
20454;SDS011;10386;54.314;10.022;2023-12-04T07:52:54;28.23;;;11.97;;
20454;SDS011;10386;54.314;10.022;2023-12-04T07:55:21;30.97;;;11.60;;
20454;SDS011;10386;54.314;10.022;2023-12-04T07:57:48;37.67;;;13.07;;
20454;SDS011;10386;54.314;10.022;2023-12-04T08:00:17;33.37;;;11.83;;
20454;SDS011;10386;54.314;10.022;2023-12-04T08:02:49;33.83;;;13.37;;
20454;SDS011;10386;54.314;10.022;2023-12-04T08:05:16;28.37;;;12.57;;
20454;SDS011;10386;54.314;10.022;2023-12-04T08:07:43;31.40;;;12.53;;
20454;SDS011;10386;54.314;10.022;2023-12-04T08:10:11;28.40;;;10.97;;
20454;SDS011;10386;54.314;10.022;2023-12-04T08:12:38;33.47;;;12.17;;
20454;SDS011;10386;54.314;10.022;2023-12-04T08:15:06;28.50;;;11.63;;
20454;SDS011;10386;54.314;10.022;2023-12-04T08:17:33;36.23;;;12.10;;
20454;SDS011;10386;54.314;10.022;2023-12-04T08:19:59;32.97;;;12.73;;
20454;SDS011;10386;54.314;10.022;2023-12-04T08:22:28;34.87;;;12.37;;
20454;SDS011;10386;54.314;10.022;2023-12-04T08:24:54;34.63;;;12.40;;
20454;SDS011;10386;54.314;10.022;2023-12-04T08:27:21;32.03;;;11.97;;
20454;SDS011;10386;54.314;10.022;2023-12-04T08:29:49;30.30;;;12.13;;
20454;SDS011;10386;54.314;10.022;2023-12-04T08:32:16;34.43;;;13.13;;
20454;SDS011;10386;54.314;10.022;2023-12-04T08:34:42;28.60;;;12.10;;
20454;SDS011;10386;54.314;10.022;2023-12-04T08:37:11;39.20;;;13.60;;
20454;SDS011;10386;54.314;10.022;2023-12-04T08:39:38;36.93;;;13.13;;
20454;SDS011;10386;54.314;10.022;2023-12-04T08:42:05;38.93;;;14.87;;
20454;SDS011;10386;54.314;10.022;2023-12-04T08:44:39;37.73;;;14.60;;
20454;SDS011;10386;54.314;10.022;2023-12-04T08:47:06;37.80;;;14.00;;
20454;SDS011;10386;54.314;10.022;2023-12-04T08:49:33;35.57;;;12.90;;
20454;SDS011;10386;54.314;10.022;2023-12-04T08:52:11;35.43;;;12.90;;
20454;SDS011;10386;54.314;10.022;2023-12-04T08:54:38;42.40;;;14.77;;
20454;SDS011;10386;54.314;10.022;2023-12-04T08:57:07;31.57;;;11.93;;
20454;SDS011;10386;54.314;10.022;2023-12-04T08:59:35;33.67;;;11.43;;
20454;SDS011;10386;54.314;10.022;2023-12-04T09:02:02;25.80;;;11.30;;
20454;SDS011;10386;54.314;10.022;2023-12-04T09:04:32;29.83;;;10.97;;
20454;SDS011;10386;54.314;10.022;2023-12-04T09:07:00;27.23;;;11.90;;
20454;SDS011;10386;54.314;10.022;2023-12-04T09:09:29;31.90;;;12.23;;
20454;SDS011;10386;54.314;10.022;2023-12-04T09:11:57;28.50;;;11.03;;
20454;SDS011;10386;54.314;10.022;2023-12-04T09:14:24;30.37;;;11.87;;
20454;SDS011;10386;54.314;10.022;2023-12-04T09:16:51;38.57;;;13.20;;
20454;SDS011;10386;54.314;10.022;2023-12-04T09:19:18;31.53;;;12.47;;
20454;SDS011;10386;54.314;10.022;2023-12-04T09:21:45;33.23;;;12.30;;
20454;SDS011;10386;54.314;10.022;2023-12-04T09:24:16;29.60;;;11.93;;
20454;SDS011;10386;54.314;10.022;2023-12-04T09:26:43;33.73;;;12.13;;
20454;SDS011;10386;54.314;10.022;2023-12-04T09:29:13;32.40;;;12.50;;
20454;SDS011;10386;54.314;10.022;2023-12-04T09:31:40;35.70;;;12.33;;
20454;SDS011;10386;54.314;10.022;2023-12-04T09:34:06;30.53;;;13.43;;
20454;SDS011;10386;54.314;10.022;2023-12-04T09:36:34;38.33;;;15.00;;
20454;SDS011;10386;54.314;10.022;2023-12-04T09:39:01;39.63;;;14.40;;
20454;SDS011;10386;54.314;10.022;2023-12-04T09:41:30;38.60;;;13.30;;
20454;SDS011;10386;54.314;10.022;2023-12-04T09:43:59;32.93;;;12.23;;
20454;SDS011;10386;54.314;10.022;2023-12-04T09:46:25;37.07;;;12.53;;
20454;SDS011;10386;54.314;10.022;2023-12-04T09:48:53;38.33;;;13.10;;
20454;SDS011;10386;54.314;10.022;2023-12-04T09:51:21;32.73;;;12.20;;
20454;SDS011;10386;54.314;10.022;2023-12-04T09:53:50;29.57;;;11.57;;
20454;SDS011;10386;54.314;10.022;2023-12-04T09:56:18;38.93;;;12.67;;
20454;SDS011;10386;54.314;10.022;2023-12-04T09:58:50;34.07;;;12.27;;
20454;SDS011;10386;54.314;10.022;2023-12-04T10:01:20;38.23;;;13.30;;
20454;SDS011;10386;54.314;10.022;2023-12-04T10:03:48;34.70;;;12.23;;
20454;SDS011;10386;54.314;10.022;2023-12-04T10:06:17;38.13;;;15.63;;
20454;SDS011;10386;54.314;10.022;2023-12-04T10:08:44;35.27;;;13.37;;
20454;SDS011;10386;54.314;10.022;2023-12-04T10:11:14;34.53;;;14.00;;
20454;SDS011;10386;54.314;10.022;2023-12-04T10:13:41;35.97;;;12.07;;
20454;SDS011;10386;54.314;10.022;2023-12-04T10:16:32;31.73;;;12.43;;
20454;SDS011;10386;54.314;10.022;2023-12-04T10:21:50;31.00;;;12.10;;
20454;SDS011;10386;54.314;10.022;2023-12-04T10:26:59;30.57;;;12.07;;
20454;SDS011;10386;54.314;10.022;2023-12-04T10:29:27;31.73;;;12.40;;
20454;SDS011;10386;54.314;10.022;2023-12-04T10:31:59;36.13;;;13.83;;
20454;SDS011;10386;54.314;10.022;2023-12-04T10:34:29;35.57;;;13.80;;
20454;SDS011;10386;54.314;10.022;2023-12-04T10:36:56;34.00;;;12.33;;
20454;SDS011;10386;54.314;10.022;2023-12-04T10:39:24;36.00;;;12.27;;
20454;SDS011;10386;54.314;10.022;2023-12-04T10:41:58;33.73;;;12.67;;
20454;SDS011;10386;54.314;10.022;2023-12-04T10:44:28;34.17;;;12.20;;
20454;SDS011;10386;54.314;10.022;2023-12-04T10:46:57;31.40;;;12.67;;
20454;SDS011;10386;54.314;10.022;2023-12-04T10:49:28;31.40;;;12.57;;
20454;SDS011;10386;54.314;10.022;2023-12-04T10:51:58;35.57;;;13.30;;
20454;SDS011;10386;54.314;10.022;2023-12-04T10:54:26;29.90;;;11.97;;
20454;SDS011;10386;54.314;10.022;2023-12-04T10:56:55;31.40;;;12.00;;
20454;SDS011;10386;54.314;10.022;2023-12-04T10:59:30;31.17;;;12.13;;
20454;SDS011;10386;54.314;10.022;2023-12-04T11:02:03;33.43;;;13.43;;
20454;SDS011;10386;54.314;10.022;2023-12-04T11:04:32;31.67;;;12.10;;
20454;SDS011;10386;54.314;10.022;2023-12-04T11:07:02;29.33;;;12.23;;
20454;SDS011;10386;54.314;10.022;2023-12-04T11:09:34;32.50;;;12.17;;
20454;SDS011;10386;54.314;10.022;2023-12-04T11:12:02;32.93;;;12.77;;
20454;SDS011;10386;54.314;10.022;2023-12-04T11:14:40;36.07;;;12.67;;
20454;SDS011;10386;54.314;10.022;2023-12-04T11:17:12;38.40;;;12.97;;
20454;SDS011;10386;54.314;10.022;2023-12-04T11:19:49;36.03;;;13.43;;
20454;SDS011;10386;54.314;10.022;2023-12-04T11:22:22;33.90;;;15.87;;
20454;SDS011;10386;54.314;10.022;2023-12-04T11:24:52;35.07;;;14.63;;
20454;SDS011;10386;54.314;10.022;2023-12-04T11:27:19;36.70;;;13.17;;
20454;SDS011;10386;54.314;10.022;2023-12-04T11:29:48;33.80;;;13.33;;
20454;SDS011;10386;54.314;10.022;2023-12-04T11:32:16;34.77;;;13.60;;
20454;SDS011;10386;54.314;10.022;2023-12-04T11:34:49;34.47;;;13.43;;
20454;SDS011;10386;54.314;10.022;2023-12-04T11:37:19;32.23;;;13.43;;
20454;SDS011;10386;54.314;10.022;2023-12-04T11:39:47;34.90;;;13.90;;
20454;SDS011;10386;54.314;10.022;2023-12-04T11:42:19;31.40;;;13.20;;
20454;SDS011;10386;54.314;10.022;2023-12-04T11:44:49;33.63;;;13.17;;
20454;SDS011;10386;54.314;10.022;2023-12-04T11:47:22;32.23;;;12.20;;
20454;SDS011;10386;54.314;10.022;2023-12-04T11:49:48;33.07;;;13.37;;
20454;SDS011;10386;54.314;10.022;2023-12-04T11:52:16;35.33;;;12.50;;
20454;SDS011;10386;54.314;10.022;2023-12-04T11:55:03;33.97;;;12.37;;
20454;SDS011;10386;54.314;10.022;2023-12-04T11:57:33;32.23;;;12.47;;
20454;SDS011;10386;54.314;10.022;2023-12-04T12:00:08;38.83;;;13.77;;
20454;SDS011;10386;54.314;10.022;2023-12-04T12:02:41;45.77;;;14.60;;
20454;SDS011;10386;54.314;10.022;2023-12-04T12:05:44;29.77;;;11.60;;
20454;SDS011;10386;54.314;10.022;2023-12-04T12:08:11;34.23;;;13.03;;
20454;SDS011;10386;54.314;10.022;2023-12-04T12:10:38;32.77;;;12.33;;
20454;SDS011;10386;54.314;10.022;2023-12-04T12:13:05;39.27;;;13.87;;
20454;SDS011;10386;54.314;10.022;2023-12-04T12:15:32;35.33;;;12.77;;
20454;SDS011;10386;54.314;10.022;2023-12-04T12:18:00;33.60;;;12.87;;
20454;SDS011;10386;54.314;10.022;2023-12-04T12:20:27;29.50;;;11.97;;
20454;SDS011;10386;54.314;10.022;2023-12-04T12:22:54;33.40;;;12.23;;
20454;SDS011;10386;54.314;10.022;2023-12-04T12:25:21;37.70;;;13.77;;
20454;SDS011;10386;54.314;10.022;2023-12-04T12:27:50;28.00;;;12.50;;
20454;SDS011;10386;54.314;10.022;2023-12-04T12:30:17;30.90;;;12.47;;
20454;SDS011;10386;54.314;10.022;2023-12-04T12:32:44;33.13;;;12.43;;
20454;SDS011;10386;54.314;10.022;2023-12-04T12:35:11;34.33;;;12.50;;
20454;SDS011;10386;54.314;10.022;2023-12-04T12:37:39;32.97;;;12.43;;
20454;SDS011;10386;54.314;10.022;2023-12-04T12:40:06;32.63;;;13.40;;
20454;SDS011;10386;54.314;10.022;2023-12-04T12:42:36;38.37;;;13.77;;
20454;SDS011;10386;54.314;10.022;2023-12-04T12:45:05;32.57;;;12.53;;
20454;SDS011;10386;54.314;10.022;2023-12-04T12:47:32;38.20;;;12.93;;
20454;SDS011;10386;54.314;10.022;2023-12-04T12:50:01;50.47;;;17.93;;
20454;SDS011;10386;54.314;10.022;2023-12-04T12:52:29;37.27;;;14.17;;
20454;SDS011;10386;54.314;10.022;2023-12-04T12:54:56;31.77;;;14.03;;
20454;SDS011;10386;54.314;10.022;2023-12-04T12:57:23;39.33;;;15.17;;
20454;SDS011;10386;54.314;10.022;2023-12-04T12:59:50;32.33;;;12.67;;
20454;SDS011;10386;54.314;10.022;2023-12-04T13:02:16;38.90;;;16.30;;
20454;SDS011;10386;54.314;10.022;2023-12-04T13:04:44;41.03;;;14.90;;
20454;SDS011;10386;54.314;10.022;2023-12-04T13:07:11;35.90;;;14.43;;
20454;SDS011;10386;54.314;10.022;2023-12-04T13:09:38;42.37;;;15.50;;
20454;SDS011;10386;54.314;10.022;2023-12-04T13:12:06;36.87;;;14.97;;
20454;SDS011;10386;54.314;10.022;2023-12-04T13:14:34;34.83;;;14.17;;
20454;SDS011;10386;54.314;10.022;2023-12-04T13:17:04;35.33;;;14.87;;
20454;SDS011;10386;54.314;10.022;2023-12-04T13:19:33;36.77;;;13.97;;
20454;SDS011;10386;54.314;10.022;2023-12-04T13:22:01;35.03;;;13.87;;
20454;SDS011;10386;54.314;10.022;2023-12-04T13:24:34;31.97;;;13.27;;
20454;SDS011;10386;54.314;10.022;2023-12-04T13:27:01;40.13;;;13.97;;
20454;SDS011;10386;54.314;10.022;2023-12-04T13:29:28;36.07;;;13.53;;
20454;SDS011;10386;54.314;10.022;2023-12-04T13:31:54;33.57;;;13.37;;
20454;SDS011;10386;54.314;10.022;2023-12-04T13:34:21;34.97;;;13.90;;
20454;SDS011;10386;54.314;10.022;2023-12-04T13:36:49;37.63;;;15.27;;
20454;SDS011;10386;54.314;10.022;2023-12-04T13:39:16;34.13;;;14.03;;
20454;SDS011;10386;54.314;10.022;2023-12-04T13:41:54;33.73;;;13.77;;
20454;SDS011;10386;54.314;10.022;2023-12-04T13:44:39;33.43;;;13.67;;
20454;SDS011;10386;54.314;10.022;2023-12-04T13:47:07;36.13;;;14.53;;
20454;SDS011;10386;54.314;10.022;2023-12-04T13:49:34;32.10;;;13.37;;
20454;SDS011;10386;54.314;10.022;2023-12-04T13:52:01;37.37;;;15.07;;
20454;SDS011;10386;54.314;10.022;2023-12-04T13:54:33;33.80;;;13.57;;
20454;SDS011;10386;54.314;10.022;2023-12-04T13:57:14;33.83;;;13.33;;
20454;SDS011;10386;54.314;10.022;2023-12-04T13:59:54;38.33;;;15.13;;
20454;SDS011;10386;54.314;10.022;2023-12-04T14:02:24;35.23;;;13.87;;
20454;SDS011;10386;54.314;10.022;2023-12-04T14:04:52;37.83;;;14.23;;
20454;SDS011;10386;54.314;10.022;2023-12-04T14:07:19;36.53;;;13.97;;
20454;SDS011;10386;54.314;10.022;2023-12-04T14:09:47;38.97;;;14.40;;
20454;SDS011;10386;54.314;10.022;2023-12-04T14:12:13;37.07;;;13.90;;
20454;SDS011;10386;54.314;10.022;2023-12-04T14:14:42;34.00;;;13.67;;
20454;SDS011;10386;54.314;10.022;2023-12-04T14:17:09;35.20;;;13.57;;
20454;SDS011;10386;54.314;10.022;2023-12-04T14:19:38;32.80;;;12.93;;
20454;SDS011;10386;54.314;10.022;2023-12-04T14:22:06;38.90;;;14.50;;
20454;SDS011;10386;54.314;10.022;2023-12-04T14:24:33;38.70;;;13.27;;
20454;SDS011;10386;54.314;10.022;2023-12-04T14:27:02;35.23;;;14.03;;
20454;SDS011;10386;54.314;10.022;2023-12-04T14:29:32;33.33;;;12.50;;
20454;SDS011;10386;54.314;10.022;2023-12-04T14:31:58;35.93;;;13.47;;
20454;SDS011;10386;54.314;10.022;2023-12-04T14:34:25;32.33;;;13.73;;
20454;SDS011;10386;54.314;10.022;2023-12-04T14:36:52;73.50;;;22.67;;
20454;SDS011;10386;54.314;10.022;2023-12-04T14:39:19;34.90;;;15.83;;
20454;SDS011;10386;54.314;10.022;2023-12-04T14:41:46;38.87;;;14.33;;
20454;SDS011;10386;54.314;10.022;2023-12-04T14:44:13;37.77;;;14.10;;